Skip Navigation LinksHome page > Weather > Current weather Skip Navigation Links

Current Weather

Minneapolis-St Paul Intl/Wold-Chamberlain, Minneapolis

For information only: do not use for flight planning or navigation.
Latest weather
Observation time Monday, June 21, 2021 8:53 PM CDT
Local time Monday, June 21, 2021 9:22 PM CDT
Flight conditions Visual Meteorological Conditions
Winds
Wind direction Northwest (310°)
Wind speed 9 mph
Visibility 10 mi.
Sky condition
Ceiling unlimited
Cloud layer few clouds 6,500 ft.
Cloud layer few clouds 8,000 ft.
Temperature 60°F
Dewpoint 37°F
Altimeter 29.93 in.Hg
Derived measurements
Relative humidity 42%
Density altitude 1014 ft.
Sea-level pressure 29.93 in.Hg
Remarks
Automated weather observing station with precipitation discriminator.
METAR KMSP 220153Z 31008KT 10SM FEW065 FEW080 16/03 A2993 RMK AO2 SLP135 T01560028

Settings

Location code

InnerDrive.Weather 4.0.6770.0 Release CLR 4.0.30319.42000
Copyright ©2018 Inner Drive Technology. All rights reserved. Portions Copyright ©1986-2018 David Braverman.

Find weather

Site navigation


Skip Navigation Links

Place info

Page info

PayPal - The safer, easier way to pay online!

Return home.

Copyright ©2021 Inner Drive Technology. Purveyors of fine, hand-crafted computer software. Page printed 2021-06-22T02:22:43 UTC.